createdAt,value
2022-10-01T00:00:48.157Z,19.34
2022-10-01T00:06:42.277Z,19.38
2022-10-01T00:16:09.353Z,19.35
2022-10-01T00:25:32.092Z,19.38
2022-10-01T00:31:20.410Z,19.40
2022-10-01T00:40:43.153Z,19.45
2022-10-01T00:50:22.380Z,19.52
2022-10-01T00:56:13.167Z,19.59
2022-10-01T00:59:06.998Z,19.59
2022-10-01T01:05:01.533Z,19.62
2022-10-01T01:08:22.247Z,19.64
2022-10-01T01:14:36.951Z,19.64
2022-10-01T01:24:03.747Z,19.63
2022-10-01T01:33:27.553Z,19.60
2022-10-01T01:42:50.554Z,19.44
2022-10-01T01:52:17.057Z,19.14
2022-10-01T02:01:41.674Z,18.78
2022-10-01T02:11:15.753Z,18.50
2022-10-01T02:20:44.526Z,18.28
2022-10-01T02:26:34.961Z,18.15
2022-10-01T02:39:21.488Z,17.97
2022-10-01T02:48:51.686Z,17.86
2022-10-01T03:01:43.398Z,17.80
2022-10-01T03:14:34.145Z,17.71
2022-10-01T03:23:57.028Z,17.64
2022-10-01T03:33:19.209Z,17.59
2022-10-01T03:35:45.416Z,17.59
2022-10-01T03:48:12.676Z,17.56
2022-10-01T03:57:35.385Z,17.54
2022-10-01T04:10:26.192Z,17.44
2022-10-01T04:23:17.286Z,17.27
2022-10-01T04:28:36.102Z,17.23
2022-10-01T04:48:29.165Z,17.30
2022-10-01T04:57:52.225Z,17.38
2022-10-01T05:10:37.244Z,17.50
2022-10-01T05:16:54.110Z,17.59
2022-10-01T05:25:52.489Z,17.75
2022-10-01T05:35:15.179Z,17.87
2022-10-01T05:44:45.860Z,17.95
2022-10-01T05:57:36.067Z,17.91
2022-10-01T06:16:36.207Z,17.87
2022-10-01T06:29:26.651Z,17.92
2022-10-01T06:38:49.419Z,17.98
2022-10-01T06:51:52.874Z,18.07
2022-10-01T07:01:19.605Z,18.16
2022-10-01T07:06:58.157Z,18.24
2022-10-01T07:12:53.283Z,18.31
2022-10-01T07:25:43.297Z,18.35
2022-10-01T07:31:38.689Z,18.38
2022-10-01T07:41:05.505Z,18.45
2022-10-01T07:47:00.009Z,18.53
2022-10-01T07:56:21.622Z,18.64
2022-10-01T08:12:42.657Z,18.81
2022-10-01T08:29:01.169Z,18.90
2022-10-01T08:32:22.857Z,18.91
2022-10-01T08:42:03.653Z,19.07
2022-10-01T08:45:09.081Z,19.11
2022-10-01T08:54:31.381Z,19.44
2022-10-01T09:07:28.974Z,19.94
2022-10-01T09:10:34.056Z,20.08
2022-10-01T09:19:57.234Z,20.52
2022-10-01T09:32:30.208Z,20.93
2022-10-01T09:41:51.995Z,21.10
2022-10-01T09:51:19.258Z,21.18
2022-10-01T10:04:10.177Z,21.24
2022-10-01T10:16:54.706Z,21.25
2022-10-01T10:26:22.071Z,21.31
2022-10-01T10:42:47.327Z,21.42
2022-10-01T10:48:43.973Z,21.42
2022-10-01T11:05:16.614Z,21.50
2022-10-01T11:18:23.139Z,21.93
2022-10-01T11:31:26.450Z,22.23
2022-10-01T11:34:21.811Z,22.31
2022-10-01T11:43:40.364Z,22.58
2022-10-01T11:56:53.029Z,22.96
2022-10-01T12:09:55.330Z,23.17
2022-10-01T12:13:05.657Z,23.16
2022-10-01T12:22:30.912Z,22.80
2022-10-01T12:35:36.512Z,21.79
2022-10-01T12:48:31.153Z,19.91
2022-10-01T13:01:40.863Z,18.77
2022-10-01T13:14:33.295Z,18.71
2022-10-01T13:27:56.938Z,19.02
2022-10-01T13:33:56.385Z,19.21
2022-10-01T13:46:24.759Z,19.50
2022-10-01T13:55:41.870Z,19.90
2022-10-01T14:08:23.300Z,20.27
2022-10-01T14:21:13.987Z,20.49
2022-10-01T14:24:27.356Z,20.59
2022-10-01T14:37:18.802Z,21.02
2022-10-01T14:50:17.647Z,21.47
2022-10-01T14:53:22.639Z,21.51
2022-10-01T15:02:47.385Z,21.62
2022-10-01T15:05:52.642Z,21.63
2022-10-01T15:15:29.571Z,21.64
2022-10-01T15:25:11.035Z,21.64
2022-10-01T15:31:00.828Z,21.66
2022-10-01T15:40:22.140Z,21.76
2022-10-01T15:49:38.069Z,21.89
2022-10-01T16:02:32.959Z,21.97
2022-10-01T16:15:27.700Z,21.84
2022-10-01T16:28:28.454Z,21.72
2022-10-01T16:41:22.330Z,21.60
2022-10-01T16:47:11.420Z,21.52
2022-10-01T16:56:36.413Z,21.38
2022-10-01T17:09:27.193Z,21.17
2022-10-01T17:22:18.138Z,20.94
2022-10-01T17:28:14.851Z,20.87
2022-10-01T17:41:12.014Z,20.69
2022-10-01T17:50:27.989Z,20.59
2022-10-01T17:59:44.066Z,20.53
2022-10-01T18:09:04.862Z,20.51
2022-10-01T18:19:51.312Z,20.45
2022-10-01T18:28:09.260Z,20.36
2022-10-01T18:41:03.310Z,20.22
2022-10-01T18:50:27.800Z,20.07
2022-10-01T18:53:37.868Z,20.02
2022-10-01T19:03:04.273Z,19.84
2022-10-01T19:16:13.889Z,19.68
2022-10-01T19:25:37.546Z,19.59
2022-10-01T19:35:02.786Z,19.53
2022-10-01T19:41:15.515Z,19.55
2022-10-01T19:47:25.094Z,19.60
2022-10-01T19:50:24.946Z,19.63
2022-10-01T19:59:41.144Z,19.68
2022-10-01T20:12:43.282Z,19.66
2022-10-01T20:15:52.807Z,19.63
2022-10-01T20:21:44.313Z,19.57
2022-10-01T20:24:20.258Z,19.55
2022-10-01T20:40:49.714Z,19.37
2022-10-01T20:43:51.735Z,19.34
2022-10-01T20:53:22.078Z,19.27
2022-10-01T21:06:15.030Z,19.19
2022-10-01T21:19:17.075Z,19.14
2022-10-01T21:25:15.011Z,19.11
2022-10-01T21:38:08.017Z,19.09
2022-10-01T21:50:55.229Z,19.07
2022-10-01T22:03:53.116Z,19.10
2022-10-01T22:16:51.525Z,19.09
2022-10-01T22:29:41.377Z,19.04
2022-10-01T22:32:28.392Z,19.04
2022-10-01T22:45:15.281Z,18.99
2022-10-01T22:51:16.187Z,18.99
2022-10-01T22:57:29.775Z,18.98
2022-10-01T23:00:49.241Z,19.00
2022-10-01T23:06:55.040Z,18.99
2022-10-01T23:19:56.095Z,19.04
2022-10-01T23:29:33.631Z,19.07
2022-10-01T23:38:56.141Z,19.10
2022-10-01T23:48:30.521Z,19.11
2022-10-01T23:51:06.090Z,19.12
